Lake City, SD

1:31 AM CST on December 11, 2016 (GMT -0600)
| | Change Station
Active Advisory: Winter Weather Advisory

Elev -9999 ft 0.00 °N, 0.00 °E | Updated 0 second ago

Snow
Snow
64 °F
Feels Like 64 °F
N
4
Wind Variable Wind from South
Gusts mph

Today
High -- | Low -- °F
--% Chance of Precip.
Yesterday
High -- | Low -- °F
Precip. -- in
Pressure 29.99 in
Visibility 3.0 miles
Clouds Mostly Cloudy 400 ft
Mostly Cloudy 1000 ft
Overcast 1700 ft
Dew Point 48 °F
Humidity 56%
Rainfall --
Snow Depth Not available.
8:00 AM 4:45 PM
Waxing Gibbous, 89% visible
METAR KGWR 110715Z AUTO 05013KT 3SM BKN004 BKN010 OVC017 M12/M14 A2999 RMK AO1
Pressure 29.99 in
Visibility 3.0 miles
Clouds Mostly Cloudy 400 ft
Mostly Cloudy 1000 ft
Overcast 1700 ft
Dew Point 48 °F
Humidity 56%
Rainfall --
Snow Depth Not available.
8:00 AM 4:45 PM
Waxing Gibbous, 89% visible
METAR KGWR 110715Z AUTO 05013KT 3SM BKN004 BKN010 OVC017 M12/M14 A2999 RMK AO1

10-Day Weather Forecast

Almanac

Astronomy

Dec. 11, 2016 Rise Set
Actual Time
Civil Twilight
Nautical Twilight
Astronomical Twilight
Moon
Length of Visible Light
Length of Day
Tomorrow will be .
, % of the Moon is Illuminated

Today's Extremes

State Highs State Lows

Community

WunderPhotos

Upload Photos

1,956,707 photos uploaded!

WunderBlog® & News

Nearby

Air Quality

  Air Quality AQ Index Pollutant
Not available.

Snow Depth

Station Depth Elevation

Earthquake Activity

City Distance Mag. Time & Date
Minimum magnitude displayed is 2.5.

Coastal Water Temperatures

Place Temperature

Stations

Nearby Weather Stations

Station Location Temp. Windchill Dew Point Humidity Wind Precip. Elev Updated Type
                   

Watches & Warnings

Winter Weather Advisory
Issued: 11:41 PM CST Dec. 10, 2016 – National Weather Service

... Winter Weather Advisory remains in effect until 9 am CST
Sunday...

* timing... expect snow to continue... diminishing by mid-morning
Sunday.

* Snow accumulations... additional snow accumulations of 2 to 4
inches are expected. Storm total snow accumulations of 3 to 5
inches.

* Winds / visibilities... east wind becoming northeast 10 to 20
mph will only create minor blowing snow impacts.

* Impacts... plan on slippery Road conditions.

Precautionary/preparedness actions...

A Winter Weather Advisory for snow means periods of snow will
cause primarily travel difficulties. Be prepared for snow covered
roads and limited visibilities... and use caution while driving.
The latest Road conditions for the state you are calling from can
be obtained by calling 5 1 1.


Tmt